createdAt,value
2019-01-08T00:00:11.006Z,60.86
2019-01-08T00:02:43.788Z,60.82
2019-01-08T00:05:14.902Z,61.18
2019-01-08T00:07:46.031Z,61.29
2019-01-08T00:10:19.101Z,59.91
2019-01-08T00:12:50.400Z,61.07
2019-01-08T00:15:21.572Z,60.27
2019-01-08T00:17:52.893Z,60.81
2019-01-08T00:20:24.107Z,60.35
2019-01-08T00:22:55.650Z,60.08
2019-01-08T00:25:26.836Z,60.52
2019-01-08T00:27:58.216Z,60.12
2019-01-08T00:30:29.398Z,60.30
2019-01-08T00:33:00.604Z,60.17
2019-01-08T00:35:31.818Z,60.60
2019-01-08T00:38:03.194Z,60.30
2019-01-08T00:40:34.446Z,60.57
2019-01-08T00:43:05.713Z,60.61
2019-01-08T00:45:36.919Z,60.67
2019-01-08T00:48:08.034Z,60.34
2019-01-08T00:50:39.353Z,60.31
2019-01-08T00:53:11.613Z,60.87
2019-01-08T00:55:42.733Z,60.42
2019-01-08T00:58:13.914Z,60.71
2019-01-08T01:00:46.180Z,60.21
2019-01-08T01:03:17.398Z,60.24
2019-01-08T01:05:48.701Z,60.69
2019-01-08T01:08:20.081Z,59.95
2019-01-08T01:10:51.289Z,60.45
2019-01-08T01:13:22.497Z,60.48
2019-01-08T01:15:55.081Z,60.51
2019-01-08T01:18:28.380Z,61.64
2019-01-08T01:20:59.613Z,61.47
2019-01-08T01:23:30.959Z,60.49
2019-01-08T01:26:02.280Z,60.55
2019-01-08T01:28:33.550Z,60.52
2019-01-08T01:31:04.883Z,59.61
2019-01-08T01:33:36.070Z,59.93
2019-01-08T01:36:07.275Z,60.29
2019-01-08T01:38:38.599Z,60.40
2019-01-08T01:41:09.749Z,60.77
2019-01-08T01:43:40.949Z,61.00
2019-01-08T01:46:12.180Z,60.89
2019-01-08T01:48:44.371Z,60.86
2019-01-08T01:51:16.748Z,61.10
2019-01-08T01:53:47.834Z,61.09
2019-01-08T01:56:19.165Z,62.05
2019-01-08T01:58:50.470Z,61.72
2019-01-08T02:01:21.791Z,61.36
2019-01-08T02:03:52.860Z,60.91
2019-01-08T02:06:23.979Z,61.22
2019-01-08T02:08:55.299Z,60.80
2019-01-08T02:11:26.713Z,60.45
2019-01-08T02:13:58.862Z,61.15
2019-01-08T02:16:32.656Z,60.65
2019-01-08T02:19:03.887Z,61.06
2019-01-08T02:21:34.971Z,60.56
2019-01-08T02:24:06.513Z,61.06
2019-01-08T02:26:37.729Z,60.82
2019-01-08T02:29:16.296Z,60.59
2019-01-08T02:31:41.745Z,61.23
2019-01-08T02:34:13.093Z,60.63
2019-01-08T02:36:46.169Z,60.17
2019-01-08T02:39:17.468Z,59.90
2019-01-08T02:41:48.807Z,59.71
2019-01-08T02:44:20.216Z,60.67
2019-01-08T02:46:51.365Z,59.21
2019-01-08T02:49:24.058Z,60.21
2019-01-08T02:51:55.081Z,60.06
2019-01-08T02:54:26.526Z,60.50
2019-01-08T02:56:57.791Z,59.98
2019-01-08T02:59:28.949Z,59.88
2019-01-08T03:02:00.223Z,59.16
2019-01-08T03:04:31.424Z,58.34
2019-01-08T03:07:02.671Z,58.12
2019-01-08T03:09:38.504Z,57.46
2019-01-08T03:12:11.274Z,56.69
2019-01-08T03:14:42.557Z,56.91
2019-01-08T03:17:14.845Z,57.02
2019-01-08T03:19:46.082Z,57.19
2019-01-08T03:22:19.276Z,57.17
2019-01-08T03:24:50.545Z,58.03
2019-01-08T03:27:21.652Z,57.65
2019-01-08T03:29:52.890Z,57.57
2019-01-08T03:32:24.112Z,57.16
2019-01-08T03:34:55.202Z,56.60
2019-01-08T03:37:28.041Z,57.38
2019-01-08T03:39:59.247Z,57.78
2019-01-08T03:42:30.451Z,57.18
2019-01-08T03:45:01.799Z,56.92
2019-01-08T03:47:35.411Z,58.10
2019-01-08T03:50:07.048Z,57.77
2019-01-08T03:52:41.776Z,56.74
2019-01-08T03:55:12.852Z,56.53
2019-01-08T03:57:44.004Z,56.62
2019-01-08T04:00:15.485Z,57.41
2019-01-08T04:02:50.406Z,56.89
2019-01-08T04:05:21.717Z,57.50
2019-01-08T04:07:52.944Z,57.01
2019-01-08T04:10:24.027Z,57.30
2019-01-08T04:12:57.009Z,56.99
2019-01-08T04:15:30.084Z,57.32
2019-01-08T04:18:02.563Z,56.92
2019-01-08T04:20:33.783Z,57.72
2019-01-08T04:23:05.084Z,57.22
2019-01-08T04:25:36.191Z,57.00
2019-01-08T04:28:10.053Z,58.17
2019-01-08T04:30:41.291Z,58.08
2019-01-08T04:33:12.621Z,57.02
2019-01-08T04:35:43.728Z,57.43
2019-01-08T04:38:15.015Z,56.81
2019-01-08T04:40:46.238Z,57.45
2019-01-08T04:43:17.471Z,57.70
2019-01-08T04:45:48.771Z,57.31
2019-01-08T04:48:19.782Z,56.93
2019-01-08T04:50:51.093Z,56.45
2019-01-08T04:53:22.368Z,56.35
2019-01-08T04:55:54.589Z,56.26
2019-01-08T04:58:25.854Z,56.45
2019-01-08T05:00:57.017Z,56.53
2019-01-08T05:03:28.125Z,56.18
2019-01-08T05:05:59.538Z,57.59
2019-01-08T05:08:30.654Z,56.83
2019-01-08T05:11:01.953Z,57.41
2019-01-08T05:13:33.024Z,57.25
2019-01-08T05:16:04.227Z,56.13
2019-01-08T05:18:35.434Z,56.55
2019-01-08T05:21:06.643Z,56.40
2019-01-08T05:23:37.957Z,56.93
2019-01-08T05:26:09.204Z,56.66
2019-01-08T05:28:40.487Z,56.47
2019-01-08T05:31:11.695Z,56.67
2019-01-08T05:33:42.891Z,57.31
2019-01-08T05:36:14.152Z,56.27
2019-01-08T05:38:47.474Z,56.82
2019-01-08T05:41:20.323Z,56.97
2019-01-08T05:43:51.551Z,56.44
2019-01-08T05:46:22.826Z,56.19
2019-01-08T05:48:54.173Z,56.73
2019-01-08T05:51:25.431Z,55.85
2019-01-08T05:53:57.818Z,57.02
2019-01-08T05:56:29.089Z,56.72
2019-01-08T05:59:00.246Z,56.36
2019-01-08T06:01:31.395Z,56.95
2019-01-08T06:04:02.615Z,56.88
2019-01-08T06:06:33.957Z,57.27
2019-01-08T06:09:06.536Z,57.02
2019-01-08T06:11:37.921Z,56.91
2019-01-08T06:14:10.485Z,56.72
2019-01-08T06:16:41.661Z,57.06
2019-01-08T06:19:13.002Z,56.47
2019-01-08T06:21:44.174Z,56.68
2019-01-08T06:24:15.267Z,56.13
2019-01-08T06:26:46.721Z,57.36
2019-01-08T06:29:17.841Z,56.47
2019-01-08T06:31:49.137Z,57.75
2019-01-08T06:34:21.840Z,58.65
2019-01-08T06:36:53.008Z,59.50
2019-01-08T06:39:25.752Z,59.25
2019-01-08T06:41:56.955Z,58.85
2019-01-08T06:44:28.026Z,58.19
2019-01-08T06:46:59.240Z,57.65
2019-01-08T06:49:30.601Z,56.14
2019-01-08T06:52:01.813Z,56.80
2019-01-08T06:54:33.010Z,55.99
2019-01-08T06:57:04.332Z,56.59
2019-01-08T06:59:35.445Z,56.39
2019-01-08T07:02:06.586Z,55.33
2019-01-08T07:04:37.829Z,55.55
2019-01-08T07:07:09.049Z,55.20
2019-01-08T07:09:40.228Z,55.06
2019-01-08T07:12:11.377Z,54.34
2019-01-08T07:14:42.658Z,54.32
2019-01-08T07:17:13.863Z,54.81
2019-01-08T07:19:45.124Z,55.24
2019-01-08T07:22:16.325Z,55.33
2019-01-08T07:24:48.580Z,54.68
2019-01-08T07:27:19.830Z,54.66
2019-01-08T07:29:50.950Z,53.92
2019-01-08T07:32:22.154Z,54.16
2019-01-08T07:34:53.264Z,54.66
2019-01-08T07:37:24.695Z,53.28
2019-01-08T07:39:57.236Z,53.81
2019-01-08T07:42:28.460Z,53.98
2019-01-08T07:44:59.696Z,53.39
2019-01-08T07:47:31.000Z,53.29
2019-01-08T07:50:02.208Z,53.10
2019-01-08T07:52:33.575Z,52.26
2019-01-08T07:55:04.789Z,52.72
2019-01-08T07:57:37.492Z,52.65
2019-01-08T08:00:08.791Z,52.56
2019-01-08T08:02:40.197Z,52.36
2019-01-08T08:05:13.064Z,51.61
2019-01-08T08:07:44.324Z,52.41
2019-01-08T08:10:15.445Z,51.33
2019-01-08T08:12:46.854Z,51.59
2019-01-08T08:15:18.111Z,51.24
2019-01-08T08:17:49.202Z,50.50
2019-01-08T08:20:20.535Z,50.60
2019-01-08T08:22:51.700Z,49.92
2019-01-08T08:25:22.808Z,50.55
2019-01-08T08:27:54.144Z,49.96
2019-01-08T08:30:26.358Z,49.47
2019-01-08T08:32:57.804Z,49.04
2019-01-08T08:35:29.120Z,48.97
2019-01-08T08:38:00.398Z,48.17
2019-01-08T08:40:33.045Z,48.09
2019-01-08T08:43:07.165Z,48.45
2019-01-08T08:45:38.360Z,47.72
2019-01-08T08:48:09.705Z,46.51
2019-01-08T08:50:41.130Z,45.44
2019-01-08T08:53:12.310Z,43.98
2019-01-08T08:55:44.597Z,41.91
2019-01-08T08:58:15.842Z,37.68
2019-01-08T09:00:50.495Z,32.69
2019-01-08T09:03:23.845Z,28.80
2019-01-08T09:05:55.032Z,26.32
2019-01-08T09:08:27.373Z,22.43
2019-01-08T09:10:59.922Z,21.70
2019-01-08T09:13:31.300Z,19.74
2019-01-08T09:16:03.511Z,19.36
2019-01-08T09:18:35.140Z,18.72
2019-01-08T09:21:09.359Z,17.84
2019-01-08T09:23:40.537Z,17.96
2019-01-08T09:26:11.723Z,18.74
2019-01-08T09:28:43.171Z,20.54
2019-01-08T09:31:15.656Z,17.82
2019-01-08T09:33:47.098Z,18.50
2019-01-08T09:36:18.343Z,19.20
2019-01-08T09:38:49.934Z,21.36
2019-01-08T09:41:21.181Z,22.13
2019-01-08T09:43:52.477Z,23.18
2019-01-08T09:46:23.998Z,23.85
2019-01-08T09:48:55.218Z,25.23
2019-01-08T09:51:26.636Z,26.29
2019-01-08T09:53:59.656Z,26.07
2019-01-08T09:56:30.752Z,27.40
2019-01-08T09:59:02.148Z,27.80
2019-01-08T10:01:33.404Z,28.66
2019-01-08T10:04:05.179Z,29.04
2019-01-08T10:06:36.559Z,29.72
2019-01-08T10:09:08.360Z,29.72
2019-01-08T10:11:39.529Z,29.02
2019-01-08T10:14:10.594Z,27.06
2019-01-08T10:16:41.811Z,26.64
2019-01-08T10:19:13.027Z,27.48
2019-01-08T10:21:44.239Z,24.77
2019-01-08T10:24:15.413Z,22.02
2019-01-08T10:26:46.677Z,19.42
2019-01-08T10:29:17.836Z,17.55
2019-01-08T10:31:49.044Z,17.17
2019-01-08T10:34:20.372Z,17.74
2019-01-08T10:36:51.705Z,16.91
2019-01-08T10:39:22.812Z,17.89
2019-01-08T10:41:54.091Z,17.20
2019-01-08T10:44:25.510Z,16.10
2019-01-08T10:46:56.702Z,17.55
2019-01-08T10:49:28.059Z,16.01
2019-01-08T10:51:59.071Z,15.08
2019-01-08T10:54:30.282Z,16.38
2019-01-08T10:57:01.468Z,14.59
2019-01-08T10:59:32.714Z,15.18
2019-01-08T11:02:03.977Z,13.89
2019-01-08T11:04:36.127Z,13.81
2019-01-08T11:07:07.435Z,14.38
2019-01-08T11:09:38.770Z,15.22
2019-01-08T11:12:10.051Z,14.29
2019-01-08T11:14:41.281Z,13.57
2019-01-08T11:17:13.562Z,13.61
2019-01-08T11:19:44.918Z,13.19
2019-01-08T11:22:16.143Z,13.16
2019-01-08T11:24:47.525Z,14.20
2019-01-08T11:27:18.750Z,14.73
2019-01-08T11:29:50.007Z,14.11
2019-01-08T11:32:21.206Z,14.40
2019-01-08T11:34:52.480Z,16.88
2019-01-08T11:37:23.737Z,15.66
2019-01-08T11:39:55.249Z,14.37
2019-01-08T11:42:26.424Z,14.41
2019-01-08T11:44:57.665Z,12.82
2019-01-08T11:47:28.961Z,12.64
2019-01-08T11:50:00.293Z,13.27
2019-01-08T11:52:31.317Z,14.26
2019-01-08T11:55:02.693Z,14.68
2019-01-08T11:57:33.780Z,14.47
2019-01-08T12:00:07.193Z,15.10
2019-01-08T12:02:47.612Z,16.15
2019-01-08T12:05:14.873Z,17.68
2019-01-08T12:07:45.763Z,19.26
2019-01-08T12:10:17.015Z,20.58
2019-01-08T12:12:48.343Z,21.79
2019-01-08T12:15:19.459Z,23.81
2019-01-08T12:17:50.757Z,25.48
2019-01-08T12:20:22.245Z,26.86
2019-01-08T12:22:53.566Z,27.57
2019-01-08T12:25:24.748Z,28.27
2019-01-08T12:27:55.923Z,30.02
2019-01-08T12:30:27.342Z,30.95
2019-01-08T12:32:58.651Z,31.30
2019-01-08T12:35:29.865Z,32.68
2019-01-08T12:38:01.022Z,33.04
2019-01-08T12:40:32.395Z,35.57
2019-01-08T12:43:03.812Z,35.57
2019-01-08T12:45:37.105Z,36.59
2019-01-08T12:48:08.482Z,37.27
2019-01-08T12:50:39.801Z,38.03
2019-01-08T12:53:11.075Z,39.45
2019-01-08T12:55:42.418Z,40.14
2019-01-08T12:58:13.658Z,40.58
2019-01-08T13:00:44.917Z,40.82
2019-01-08T13:03:16.398Z,41.19
2019-01-08T13:05:47.477Z,40.53
2019-01-08T13:08:18.760Z,40.93
2019-01-08T13:10:50.064Z,40.73
2019-01-08T13:13:22.206Z,40.90
2019-01-08T13:15:54.714Z,41.12
2019-01-08T13:18:26.104Z,41.22
2019-01-08T13:20:58.530Z,41.54
2019-01-08T13:23:29.714Z,41.75
2019-01-08T13:26:01.112Z,41.40
2019-01-08T13:28:32.333Z,41.12
2019-01-08T13:31:03.562Z,41.51
2019-01-08T13:33:35.077Z,42.06
2019-01-08T13:36:07.600Z,42.21
2019-01-08T13:38:38.743Z,42.42
2019-01-08T13:41:10.045Z,42.42
2019-01-08T13:43:41.364Z,42.72
2019-01-08T13:46:12.716Z,43.26
2019-01-08T13:48:43.927Z,43.34
2019-01-08T13:51:15.306Z,42.57
2019-01-08T13:53:46.694Z,42.85
2019-01-08T13:56:20.477Z,42.51
2019-01-08T13:58:51.761Z,42.93
2019-01-08T14:01:23.105Z,43.26
2019-01-08T14:03:54.317Z,42.95
2019-01-08T14:06:25.605Z,42.75
2019-01-08T14:08:56.912Z,43.09
2019-01-08T14:11:28.269Z,43.09
2019-01-08T14:14:00.897Z,42.40
2019-01-08T14:16:32.112Z,43.34
2019-01-08T14:19:03.314Z,43.18
2019-01-08T14:21:34.641Z,43.49
2019-01-08T14:24:05.994Z,44.35
2019-01-08T14:26:37.341Z,43.83
2019-01-08T14:29:10.768Z,43.89
2019-01-08T14:31:42.244Z,43.92
2019-01-08T14:34:13.548Z,43.78
2019-01-08T14:36:44.860Z,43.94
2019-01-08T14:39:16.063Z,44.17
2019-01-08T14:41:47.269Z,44.32
2019-01-08T14:44:19.613Z,44.37
2019-01-08T14:46:50.846Z,44.82
2019-01-08T14:49:22.256Z,44.86
2019-01-08T14:51:53.623Z,44.80
2019-01-08T14:54:24.959Z,44.99
2019-01-08T14:56:56.156Z,44.71
2019-01-08T14:59:28.634Z,44.87
2019-01-08T15:02:01.328Z,45.19
2019-01-08T15:04:32.508Z,45.06
2019-01-08T15:07:04.010Z,44.97
2019-01-08T15:09:35.039Z,45.15
2019-01-08T15:12:06.322Z,45.35
2019-01-08T15:14:37.770Z,45.31
2019-01-08T15:17:09.041Z,45.75
2019-01-08T15:19:41.568Z,46.07
2019-01-08T15:22:13.896Z,46.49
2019-01-08T15:24:48.577Z,45.26
2019-01-08T15:27:20.105Z,45.65
2019-01-08T15:29:51.415Z,46.67
2019-01-08T15:32:22.869Z,47.13
2019-01-08T15:34:54.091Z,48.00
2019-01-08T15:37:25.493Z,47.91
2019-01-08T15:39:56.724Z,47.45
2019-01-08T15:42:29.698Z,47.88
2019-01-08T15:45:01.900Z,47.73
2019-01-08T15:47:33.204Z,48.33
2019-01-08T15:50:05.331Z,48.18
2019-01-08T15:52:36.652Z,47.54
2019-01-08T15:55:08.887Z,46.88
2019-01-08T15:57:42.141Z,47.25
2019-01-08T16:00:15.541Z,46.95
2019-01-08T16:02:47.022Z,47.64
2019-01-08T16:05:18.337Z,48.23
2019-01-08T16:07:50.868Z,47.83
2019-01-08T16:10:22.024Z,48.77
2019-01-08T16:12:55.040Z,49.47
2019-01-08T16:15:26.473Z,49.05
2019-01-08T16:17:57.661Z,50.07
2019-01-08T16:20:29.337Z,50.79
2019-01-08T16:23:01.787Z,50.47
2019-01-08T16:25:33.059Z,51.11
2019-01-08T16:28:04.362Z,51.89
2019-01-08T16:30:35.642Z,52.39
2019-01-08T16:33:15.704Z,52.72
2019-01-08T16:35:40.913Z,52.38
2019-01-08T16:38:12.249Z,52.96
2019-01-08T16:40:43.344Z,52.19
2019-01-08T16:43:14.684Z,52.71
2019-01-08T16:45:45.917Z,52.90
2019-01-08T16:48:16.967Z,52.23
2019-01-08T16:50:48.087Z,52.38
2019-01-08T16:53:19.592Z,52.70
2019-01-08T16:55:50.715Z,52.21
2019-01-08T16:58:23.571Z,52.38
2019-01-08T17:00:54.912Z,51.86
2019-01-08T17:03:26.831Z,51.95
2019-01-08T17:05:58.150Z,52.09
2019-01-08T17:08:29.421Z,52.15
2019-01-08T17:11:01.123Z,51.97
2019-01-08T17:13:32.471Z,52.45
2019-01-08T17:16:03.683Z,52.06
2019-01-08T17:18:35.338Z,52.30
2019-01-08T17:21:06.558Z,51.93
2019-01-08T17:23:37.753Z,51.80
2019-01-08T17:26:09.083Z,52.47
2019-01-08T17:28:40.736Z,50.98
2019-01-08T17:31:11.858Z,50.85
2019-01-08T17:33:43.174Z,50.85
2019-01-08T17:36:14.462Z,52.12
2019-01-08T17:38:45.700Z,51.21
2019-01-08T17:41:16.932Z,52.05
2019-01-08T17:43:49.679Z,52.36
2019-01-08T17:46:21.077Z,52.70
2019-01-08T17:48:52.389Z,52.34
2019-01-08T17:51:23.742Z,51.73
2019-01-08T17:53:55.015Z,52.06
2019-01-08T17:56:26.498Z,52.38
2019-01-08T17:59:06.721Z,53.08
2019-01-08T18:01:42.311Z,52.00
2019-01-08T18:04:13.607Z,52.22
2019-01-08T18:06:44.861Z,53.37
2019-01-08T18:09:16.147Z,53.14
2019-01-08T18:11:47.518Z,52.75
2019-01-08T18:14:18.906Z,52.53
2019-01-08T18:16:50.087Z,52.11
2019-01-08T18:19:21.539Z,52.83
2019-01-08T18:21:52.613Z,52.50
2019-01-08T18:24:23.706Z,51.88
2019-01-08T18:26:55.100Z,52.40
2019-01-08T18:29:26.223Z,51.13
2019-01-08T18:31:57.650Z,51.02
2019-01-08T18:34:29.219Z,51.77
2019-01-08T18:37:00.458Z,52.30
2019-01-08T18:39:31.829Z,51.45
2019-01-08T18:42:02.914Z,51.78
2019-01-08T18:44:35.225Z,51.81
2019-01-08T18:47:06.633Z,51.53
2019-01-08T18:49:42.670Z,50.54
2019-01-08T18:52:15.535Z,51.44
2019-01-08T18:54:46.832Z,50.74
2019-01-08T18:57:17.894Z,51.02
2019-01-08T18:59:49.115Z,51.96
2019-01-08T19:02:20.492Z,51.42
2019-01-08T19:04:52.007Z,50.91
2019-01-08T19:07:23.170Z,50.58
2019-01-08T19:10:02.539Z,49.83
2019-01-08T19:12:36.093Z,50.73
2019-01-08T19:15:07.863Z,50.30
2019-01-08T19:17:39.288Z,51.09
2019-01-08T19:20:10.778Z,51.60
2019-01-08T19:22:43.164Z,51.09
2019-01-08T19:25:14.581Z,51.36
2019-01-08T19:27:45.833Z,51.61
2019-01-08T19:30:17.039Z,52.17
2019-01-08T19:32:48.425Z,51.21
2019-01-08T19:35:19.968Z,51.78
2019-01-08T19:37:51.300Z,51.64
2019-01-08T19:40:22.636Z,52.20
2019-01-08T19:42:53.828Z,52.12
2019-01-08T19:45:25.240Z,52.48
2019-01-08T19:47:56.458Z,52.09
2019-01-08T19:50:29.059Z,51.14
2019-01-08T19:53:00.131Z,51.46
2019-01-08T19:55:31.449Z,52.26
2019-01-08T19:58:02.730Z,52.75
2019-01-08T20:00:35.860Z,52.81
2019-01-08T20:03:07.123Z,52.51
2019-01-08T20:05:38.440Z,52.47
2019-01-08T20:08:09.780Z,52.27
2019-01-08T20:10:47.296Z,51.53
2019-01-08T20:13:18.633Z,51.81
2019-01-08T20:15:49.932Z,51.30
2019-01-08T20:18:23.494Z,51.29
2019-01-08T20:20:54.780Z,51.92
2019-01-08T20:23:26.114Z,52.20
2019-01-08T20:25:59.384Z,52.82
2019-01-08T20:28:30.686Z,52.09
2019-01-08T20:31:01.929Z,52.33
2019-01-08T20:33:33.318Z,51.75
2019-01-08T20:36:04.768Z,51.30
2019-01-08T20:38:36.165Z,51.65
2019-01-08T20:41:08.953Z,52.12
2019-01-08T20:43:41.630Z,52.80
2019-01-08T20:46:12.741Z,52.03
2019-01-08T20:48:43.846Z,51.85
2019-01-08T20:51:16.601Z,52.89
2019-01-08T20:53:49.857Z,53.31
2019-01-08T20:56:21.412Z,53.16
2019-01-08T20:58:53.690Z,52.41
2019-01-08T21:01:26.047Z,53.17
2019-01-08T21:03:57.281Z,52.99
2019-01-08T21:06:30.514Z,52.64
2019-01-08T21:09:01.649Z,52.16
2019-01-08T21:11:34.795Z,52.61
2019-01-08T21:14:05.980Z,52.34
2019-01-08T21:16:37.256Z,52.47
2019-01-08T21:19:10.298Z,52.94
2019-01-08T21:21:41.739Z,52.84
2019-01-08T21:24:12.992Z,53.66
2019-01-08T21:26:44.160Z,53.32
2019-01-08T21:29:15.316Z,54.52
2019-01-08T21:31:46.640Z,54.28
2019-01-08T21:34:17.912Z,53.10
2019-01-08T21:36:49.248Z,52.77
2019-01-08T21:39:20.567Z,52.72
2019-01-08T21:41:51.945Z,52.71
2019-01-08T21:44:24.828Z,53.19
2019-01-08T21:46:56.084Z,52.81
2019-01-08T21:49:27.223Z,52.68
2019-01-08T21:51:58.460Z,52.02
